Accueil
METAR-TAF:

METAR-TAF

Aéroports :

La Chaux-de-Fonds, Suisse

Aéroport régional Les Éplatures

latitude: 47-05-03N, longitude: 006-47-37E, altitude: 1027 m

Observation

Le bulletin a été fait il y a 39 minutes, à 10:20 UTC
Vent 3 kt de ouest/sud-ouest
Température 8°C
Humidité 61%
Pression 1015 hPa
Visibilité 10 km ou plus
pas de nuages en-dessous de 1500 mètres et pas de cumulonimbus.

METAR: LSGC 221020Z 25003KT CAVOK 08/01 Q1015

Heure: 11:59 (10:59 UTC)

Prévision

Le bulletin a été fait il y a 2 heures et 34 minutes, à 08:25 UTC
Prévision valable du 22 à 09 UTC au 22 à 18 UTC
Vent 7 kt de sud-ouest
Visibilité 10 km ou plus
pas de nuages en-dessous de 1500 mètres et pas de cumulonimbus.

TAF: LSGC 220825Z 2209/2218 22007KT CAVOK

Observations et prévisions météorologiques de plus de 4000 aéroports (messages METAR et TAF).

Les stations disponibles sont représentées par des disques jaunes et rouges sur la carte.

Passer la souris dessus pour voir le nom de la station.

Cliquer dessus pour voir les observations et prévisions météorologiques.

Pour changer de carte: cliquez sur les boutons verts avec une croix noire pour zoomer, sur le bouton vert avec un tiret pour effectuer un zoom arrière, ou sur les flèches vertes pour les cartes adjacentes.


METAR-TAF: